createdAt,value
2019-03-28T00:02:23.753Z,102023.83
2019-03-28T00:04:52.260Z,102026.83
2019-03-28T00:07:23.888Z,102022.77
2019-03-28T00:09:50.894Z,102027.45
2019-03-28T00:12:19.316Z,102018.45
2019-03-28T00:14:47.782Z,102020.94
2019-03-28T00:17:16.281Z,102021.45
2019-03-28T00:19:44.720Z,102027.02
2019-03-28T00:22:14.956Z,102020.89
2019-03-28T00:24:45.048Z,102019.48
2019-03-28T00:27:13.482Z,102021.36
2019-03-28T00:29:41.959Z,102015.37
2019-03-28T00:32:10.390Z,102018.73
2019-03-28T00:34:38.820Z,102019.67
2019-03-28T00:37:07.820Z,102024.77
2019-03-28T00:39:36.676Z,102017.89
2019-03-28T00:42:05.104Z,102022.94
2019-03-28T00:44:33.573Z,102012.28
2019-03-28T00:47:02.025Z,102013.91
2019-03-28T00:49:30.456Z,102017.23
2019-03-28T00:51:59.057Z,102017.81
2019-03-28T00:54:27.556Z,102016.09
2019-03-28T00:56:55.990Z,102017.84
2019-03-28T00:59:24.485Z,102015.38
2019-03-28T01:01:52.880Z,102005.40
2019-03-28T01:04:21.381Z,102008.52
2019-03-28T01:06:49.933Z,102008.16
2019-03-28T01:09:18.362Z,102011.38
2019-03-28T01:11:46.793Z,102014.23
2019-03-28T01:14:15.256Z,102013.58
2019-03-28T01:16:43.686Z,102013.09
2019-03-28T01:19:12.119Z,102007.55
2019-03-28T01:21:41.199Z,102007.38
2019-03-28T01:24:09.878Z,102009.33
2019-03-28T01:26:38.312Z,102006.64
2019-03-28T01:29:06.849Z,102004.88
2019-03-28T01:31:35.274Z,102005.03
2019-03-28T01:34:03.774Z,102007.18
2019-03-28T01:36:32.650Z,102009.23
2019-03-28T01:39:01.077Z,102008.96
2019-03-28T01:41:29.522Z,102003.83
2019-03-28T01:43:58.412Z,102004.53
2019-03-28T01:46:26.843Z,102000.50
2019-03-28T01:48:55.271Z,102001.10
2019-03-28T01:51:23.736Z,101999.77
2019-03-28T01:53:52.173Z,102002.25
2019-03-28T01:56:20.600Z,101995.02
2019-03-28T01:58:49.063Z,101998.38
2019-03-28T02:01:17.565Z,102002.30
2019-03-28T02:03:45.998Z,101996.30
2019-03-28T02:06:14.469Z,102001.67
2019-03-28T02:08:42.902Z,102000.58
2019-03-28T02:11:11.332Z,102003.91
2019-03-28T02:13:40.281Z,101997.22
2019-03-28T02:16:08.712Z,102002.44
2019-03-28T02:18:37.154Z,102001.71
2019-03-28T02:21:05.691Z,102000.31
2019-03-28T02:23:34.123Z,101996.59
2019-03-28T02:26:02.559Z,101993.88
2019-03-28T02:28:31.172Z,101996.02
2019-03-28T02:30:59.598Z,101996.97
2019-03-28T02:33:28.029Z,102000.07
2019-03-28T02:35:56.493Z,102005.41
2019-03-28T02:38:24.930Z,102000.13
2019-03-28T02:40:53.363Z,101999.59
2019-03-28T02:43:21.822Z,101997.09
2019-03-28T02:45:50.249Z,101997.05
2019-03-28T02:48:18.687Z,102000.07
2019-03-28T02:50:47.358Z,102001.54
2019-03-28T02:53:15.785Z,101992.09
2019-03-28T02:55:44.292Z,101990.78
2019-03-28T02:58:12.840Z,101991.64
2019-03-28T03:00:41.261Z,101994.33
2019-03-28T03:03:09.686Z,101995.69
2019-03-28T03:05:38.145Z,101991.23
2019-03-28T03:08:07.717Z,101993.80
2019-03-28T03:10:36.628Z,101995.89
2019-03-28T03:13:05.192Z,101999.62
2019-03-28T03:15:36.690Z,101996.72
2019-03-28T03:18:05.123Z,101997.89
2019-03-28T03:20:33.578Z,102000.70
2019-03-28T03:23:02.024Z,102001.81
2019-03-28T03:25:30.457Z,102000.18
2019-03-28T03:27:59.480Z,102003.73
2019-03-28T03:30:28.017Z,102006.19
2019-03-28T03:32:56.448Z,102006.22
2019-03-28T03:35:24.912Z,102011.70
2019-03-28T03:37:53.342Z,102009.97
2019-03-28T03:40:21.770Z,102018.97
2019-03-28T03:42:50.314Z,102021.95
2019-03-28T03:45:18.744Z,102016.92
2019-03-28T03:47:47.196Z,102017.19
2019-03-28T03:50:26.831Z,102015.94
2019-03-28T03:52:55.265Z,102019.38
2019-03-28T03:55:23.764Z,102019.06
2019-03-28T03:57:52.229Z,102027.58
2019-03-28T04:00:32.206Z,102024.77
2019-03-28T04:03:02.887Z,102028.88
2019-03-28T04:05:31.659Z,102023.08
2019-03-28T04:08:00.384Z,102025.97
2019-03-28T04:10:29.016Z,102031.31
2019-03-28T04:12:57.531Z,102033.13
2019-03-28T04:15:26.019Z,102038.54
2019-03-28T04:17:54.563Z,102046.73
2019-03-28T04:20:22.995Z,102037.94
2019-03-28T04:22:51.504Z,102037.37
2019-03-28T04:25:20.293Z,102042.70
2019-03-28T04:27:48.724Z,102043.47
2019-03-28T04:30:17.221Z,102040.44
2019-03-28T04:32:46.752Z,102047.36
2019-03-28T04:35:15.368Z,102049.62
2019-03-28T04:37:43.792Z,102039.31
2019-03-28T04:40:12.334Z,102048.45
2019-03-28T04:42:40.783Z,102048.84
2019-03-28T04:45:09.381Z,102052.80
2019-03-28T04:47:38.180Z,102055.23
2019-03-28T04:50:07.824Z,102051.58
2019-03-28T04:52:36.255Z,102054.05
2019-03-28T04:55:06.369Z,102055.89
2019-03-28T04:57:34.887Z,102064.69
2019-03-28T05:00:03.632Z,102059.63
2019-03-28T05:02:32.102Z,102058.09
2019-03-28T05:05:00.535Z,102059.94
2019-03-28T05:07:28.965Z,102060.37
2019-03-28T05:09:57.438Z,102058.72
2019-03-28T05:12:25.867Z,102060.37
2019-03-28T05:14:54.304Z,102061.77
2019-03-28T05:17:22.761Z,102067.54
2019-03-28T05:19:51.466Z,102063.83
2019-03-28T05:22:19.896Z,102070.66
2019-03-28T05:24:48.449Z,102072.56
2019-03-28T05:27:16.876Z,102071.76
2019-03-28T05:29:45.307Z,102082.91
2019-03-28T05:32:13.774Z,102079.97
2019-03-28T05:34:42.221Z,102085.80
2019-03-28T05:37:10.674Z,102085.17
2019-03-28T05:39:39.123Z,102090.05
2019-03-28T05:42:07.551Z,102096.02
2019-03-28T05:44:35.981Z,102101.55
2019-03-28T05:47:04.449Z,102096.88
2019-03-28T05:49:32.879Z,102098.04
2019-03-28T05:52:01.303Z,102103.08
2019-03-28T05:54:29.761Z,102102.23
2019-03-28T05:56:58.193Z,102100.15
2019-03-28T05:59:26.626Z,102108.91
2019-03-28T06:01:55.167Z,102107.02
2019-03-28T06:04:23.597Z,102106.95
2019-03-28T06:06:52.036Z,102106.86
2019-03-28T06:09:20.506Z,102107.70
2019-03-28T06:11:48.959Z,102099.73
2019-03-28T06:14:17.389Z,102111.31
2019-03-28T06:16:45.934Z,102109.39
2019-03-28T06:19:14.366Z,102101.71
2019-03-28T06:21:42.803Z,102112.64
2019-03-28T06:24:11.384Z,102107.22
2019-03-28T06:26:39.817Z,102110.63
2019-03-28T06:29:08.711Z,102116.03
2019-03-28T06:31:37.429Z,102118.91
2019-03-28T06:34:05.876Z,102121.05
2019-03-28T06:36:34.307Z,102115.86
2019-03-28T06:39:03.032Z,102121.05
2019-03-28T06:41:31.470Z,102122.71
2019-03-28T06:43:59.900Z,102120.41
2019-03-28T06:46:28.363Z,102119.83
2019-03-28T06:48:56.822Z,102115.84
2019-03-28T06:51:25.414Z,102118.13
2019-03-28T06:53:56.983Z,102119.72
2019-03-28T06:56:25.431Z,102116.97
2019-03-28T06:58:54.137Z,102114.40
2019-03-28T07:01:22.681Z,102112.58
2019-03-28T07:03:51.181Z,102117.41
2019-03-28T07:06:19.619Z,102116.57
2019-03-28T07:08:48.090Z,102116.15
2019-03-28T07:11:16.520Z,102113.02
2019-03-28T07:13:44.952Z,102120.15
2019-03-28T07:16:13.488Z,102118.61
2019-03-28T07:18:41.922Z,102116.50
2019-03-28T07:21:10.353Z,102120.39
2019-03-28T07:23:38.832Z,102112.25
2019-03-28T07:26:07.401Z,102112.44
2019-03-28T07:28:35.835Z,102118.97
2019-03-28T07:31:04.657Z,102116.50
2019-03-28T07:33:33.089Z,102109.24
2019-03-28T07:36:01.522Z,102109.81
2019-03-28T07:38:30.001Z,102109.55
2019-03-28T07:40:58.442Z,102109.29
2019-03-28T07:43:26.875Z,102106.78
2019-03-28T07:45:55.454Z,102106.83
2019-03-28T07:48:23.890Z,102106.30
2019-03-28T07:50:52.320Z,102097.28
2019-03-28T07:53:21.592Z,102098.39
2019-03-28T07:55:50.218Z,102094.18
2019-03-28T07:58:18.646Z,102088.45
2019-03-28T08:00:47.256Z,102092.22
2019-03-28T08:03:15.688Z,102090.74
2019-03-28T08:05:44.123Z,102085.97
2019-03-28T08:08:12.706Z,102092.96
2019-03-28T08:10:41.144Z,102095.84
2019-03-28T08:13:09.577Z,102086.34
2019-03-28T08:15:38.125Z,102085.30
2019-03-28T08:18:06.793Z,102094.33
2019-03-28T08:20:35.493Z,102088.14
2019-03-28T08:23:04.309Z,102089.14
2019-03-28T08:25:34.414Z,102093.11
2019-03-28T08:28:02.756Z,102089.94
2019-03-28T08:30:38.417Z,102085.28
2019-03-28T08:33:07.711Z,102080.71
2019-03-28T08:35:39.154Z,102081.31
2019-03-28T08:38:09.882Z,102082.75
2019-03-28T08:40:40.717Z,102089.59
2019-03-28T08:43:09.386Z,102083.12
2019-03-28T08:45:37.937Z,102090.30
2019-03-28T08:48:06.689Z,102076.69
2019-03-28T08:50:35.289Z,102073.38
2019-03-28T08:53:04.110Z,102074.52
2019-03-28T08:55:32.543Z,102077.27
2019-03-28T08:58:00.983Z,102070.09
2019-03-28T09:00:35.036Z,102080.82
2019-03-28T09:02:59.660Z,102077.94
2019-03-28T09:05:28.089Z,102072.24
2019-03-28T09:07:56.615Z,102081.88
2019-03-28T09:10:25.045Z,102074.41
2019-03-28T09:12:53.568Z,102071.61
2019-03-28T09:15:22.383Z,102067.40
2019-03-28T09:17:50.814Z,102071.99
2019-03-28T09:20:19.250Z,102074.41
2019-03-28T09:22:48.135Z,102069.16
2019-03-28T09:25:16.638Z,102066.50
2019-03-28T09:27:45.068Z,102073.63
2019-03-28T09:30:14.364Z,102066.05
2019-03-28T09:32:42.938Z,102071.00
2019-03-28T09:35:13.259Z,102063.87
2019-03-28T09:37:41.714Z,102064.41
2019-03-28T09:40:10.513Z,102059.56
2019-03-28T09:42:38.945Z,102060.88
2019-03-28T09:45:08.238Z,102059.98
2019-03-28T09:47:36.660Z,102055.03
2019-03-28T09:50:06.837Z,102056.70
2019-03-28T09:52:35.299Z,102055.03
2019-03-28T09:55:04.598Z,102058.08
2019-03-28T09:57:33.034Z,102055.88
2019-03-28T10:00:01.494Z,102055.80
2019-03-28T10:02:29.999Z,102047.77
2019-03-28T10:04:58.434Z,102048.77
2019-03-28T10:07:27.001Z,102050.96
2019-03-28T10:09:55.888Z,102056.95
2019-03-28T10:12:24.534Z,102058.79
2019-03-28T10:14:53.103Z,102054.75
2019-03-28T10:17:21.912Z,102051.97
2019-03-28T10:19:50.348Z,102049.27
2019-03-28T10:22:18.823Z,102063.62
2019-03-28T10:24:47.259Z,102050.63
2019-03-28T10:27:18.950Z,102047.13
2019-03-28T10:29:46.039Z,102040.37
2019-03-28T10:32:14.467Z,102046.57
2019-03-28T10:34:42.901Z,102042.91
2019-03-28T10:37:11.368Z,102044.05
2019-03-28T10:39:39.800Z,102047.28
2019-03-28T10:42:08.236Z,102053.60
2019-03-28T10:44:37.145Z,102054.39
2019-03-28T10:47:05.757Z,102040.45
2019-03-28T10:49:34.256Z,102040.36
2019-03-28T10:52:04.138Z,102039.55
2019-03-28T10:54:32.693Z,102037.42
2019-03-28T10:57:13.080Z,102036.41
2019-03-28T10:59:31.328Z,102042.20
2019-03-28T11:01:59.771Z,102042.48
2019-03-28T11:04:28.208Z,102038.37
2019-03-28T11:06:57.183Z,102042.35
2019-03-28T11:09:25.668Z,102053.67
2019-03-28T11:11:54.169Z,102042.95
2019-03-28T11:14:22.632Z,102039.89
2019-03-28T11:16:51.074Z,102041.18
2019-03-28T11:19:19.523Z,102038.45
2019-03-28T11:21:48.232Z,102029.02
2019-03-28T11:24:16.738Z,102026.37
2019-03-28T11:26:45.198Z,102019.64
2019-03-28T11:29:13.754Z,102020.24
2019-03-28T11:31:46.848Z,102016.19
2019-03-28T11:34:12.347Z,102016.92
2019-03-28T11:36:40.805Z,102011.78
2019-03-28T11:39:09.413Z,102012.99
2019-03-28T11:41:37.865Z,102005.55
2019-03-28T11:44:06.328Z,102006.23
2019-03-28T11:46:34.756Z,101997.58
2019-03-28T11:49:03.191Z,102007.28
2019-03-28T11:51:31.673Z,101997.47
2019-03-28T11:54:00.106Z,101990.33
2019-03-28T11:56:28.551Z,101995.04
2019-03-28T11:58:57.023Z,101993.63
2019-03-28T12:01:25.455Z,101984.55
2019-03-28T12:03:53.888Z,101985.24
2019-03-28T12:06:22.372Z,101977.73
2019-03-28T12:08:50.812Z,101974.66
2019-03-28T12:11:19.259Z,101980.66
2019-03-28T12:13:47.724Z,101967.30
2019-03-28T12:16:16.988Z,101973.02
2019-03-28T12:18:45.575Z,101968.33
2019-03-28T12:21:14.038Z,101970.34
2019-03-28T12:23:42.464Z,101964.75
2019-03-28T12:26:10.910Z,101959.52
2019-03-28T12:28:39.697Z,101960.40
2019-03-28T12:31:08.190Z,101958.22
2019-03-28T12:33:36.626Z,101950.90
2019-03-28T12:36:05.167Z,101948.55
2019-03-28T12:38:33.611Z,101948.29
2019-03-28T12:41:02.124Z,101954.88
2019-03-28T12:43:30.601Z,101951.98
2019-03-28T12:45:59.034Z,101946.46
2019-03-28T12:48:27.471Z,101955.24
2019-03-28T12:50:58.958Z,101943.80
2019-03-28T12:53:26.093Z,101941.56
2019-03-28T12:55:54.603Z,101944.89
2019-03-28T12:58:23.065Z,101945.98
2019-03-28T13:00:51.571Z,101942.37
2019-03-28T13:03:20.076Z,101946.99
2019-03-28T13:05:48.546Z,101944.02
2019-03-28T13:08:17.794Z,101949.78
2019-03-28T13:10:46.534Z,101952.17
2019-03-28T13:13:14.998Z,101944.23
2019-03-28T13:15:43.823Z,101951.00
2019-03-28T13:18:12.337Z,101945.22
2019-03-28T13:20:40.804Z,101942.94
2019-03-28T13:23:09.233Z,101947.57
2019-03-28T13:25:37.664Z,101945.48
2019-03-28T13:28:06.201Z,101938.98
2019-03-28T13:30:34.721Z,101943.47
2019-03-28T13:33:03.166Z,101936.95
2019-03-28T13:35:34.922Z,101942.97
2019-03-28T13:38:01.910Z,101931.63
2019-03-28T13:40:30.346Z,101935.05
2019-03-28T13:42:59.860Z,101926.55
2019-03-28T13:45:28.303Z,101927.61
2019-03-28T13:47:56.731Z,101926.70
2019-03-28T13:50:25.542Z,101925.95
2019-03-28T13:52:54.008Z,101925.63
2019-03-28T13:55:22.415Z,101928.12
2019-03-28T13:57:52.351Z,101927.14
2019-03-28T14:00:23.965Z,101922.60
2019-03-28T14:02:58.483Z,101916.95
2019-03-28T14:05:22.646Z,101914.31
2019-03-28T14:07:51.076Z,101910.95
2019-03-28T14:10:21.774Z,101906.30
2019-03-28T14:12:49.771Z,101911.16
2019-03-28T14:15:18.272Z,101898.45
2019-03-28T14:17:46.687Z,101899.09
2019-03-28T14:20:55.411Z,101900.66
2019-03-28T14:23:23.842Z,101894.55
2019-03-28T14:25:52.270Z,101887.31
2019-03-28T14:30:55.088Z,101883.52
2019-03-28T14:33:23.545Z,101891.22
2019-03-28T14:35:52.000Z,101883.98
2019-03-28T14:38:20.423Z,101885.05
2019-03-28T14:40:48.888Z,101887.65
2019-03-28T14:43:17.310Z,101885.16
2019-03-28T14:45:45.745Z,101891.39
2019-03-28T14:48:14.195Z,101878.36
2019-03-28T14:51:22.541Z,101880.87
2019-03-28T14:53:50.992Z,101884.86
2019-03-28T15:00:07.423Z,101887.45
2019-03-28T15:02:35.858Z,101884.09
2019-03-28T15:05:44.383Z,101888.16
2019-03-28T15:08:32.135Z,101886.98
2019-03-28T15:11:19.780Z,101884.66
2019-03-28T15:13:48.214Z,101879.20
2019-03-28T15:16:16.650Z,101880.17
2019-03-28T15:21:19.133Z,101871.31
2019-03-28T15:24:06.908Z,101871.41
2019-03-28T15:26:35.357Z,101872.15
2019-03-28T15:29:03.836Z,101859.88
2019-03-28T15:31:32.288Z,101865.27
2019-03-28T15:34:00.719Z,101864.50
2019-03-28T15:36:29.143Z,101866.98
2019-03-28T15:38:57.602Z,101857.95
2019-03-28T15:41:26.034Z,101857.88
2019-03-28T15:43:54.460Z,101859.91
2019-03-28T15:46:22.922Z,101865.50
2019-03-28T15:48:51.348Z,101860.67
2019-03-28T15:51:19.778Z,101854.72
2019-03-28T15:53:48.258Z,101862.16
2019-03-28T15:56:16.655Z,101867.47
2019-03-28T15:58:45.080Z,101862.75
2019-03-28T16:01:33.610Z,101862.51
2019-03-28T16:04:03.048Z,101864.19
2019-03-28T16:06:31.477Z,101862.10
2019-03-28T16:11:33.860Z,101860.77
2019-03-28T16:14:02.293Z,101863.25
2019-03-28T16:16:30.747Z,101859.17
2019-03-28T16:19:01.628Z,101861.19
2019-03-28T16:21:29.324Z,101853.98
2019-03-28T16:23:57.862Z,101863.86
2019-03-28T16:26:26.287Z,101863.83
2019-03-28T16:28:56.453Z,101854.11
2019-03-28T16:31:25.771Z,101853.38
2019-03-28T16:34:06.111Z,101853.53
2019-03-28T16:36:44.429Z,101852.22
2019-03-28T16:39:12.851Z,101861.19
2019-03-28T16:42:00.425Z,101859.52
2019-03-28T16:44:28.856Z,101858.91
2019-03-28T16:46:57.293Z,101863.80
2019-03-28T16:49:45.017Z,101862.46
2019-03-28T16:52:13.449Z,101866.75
2019-03-28T16:54:41.883Z,101866.94
2019-03-28T16:57:10.332Z,101862.92
2019-03-28T16:59:38.764Z,101871.03
2019-03-28T17:05:00.401Z,101869.72
2019-03-28T17:10:45.669Z,101868.56
2019-03-28T17:13:54.048Z,101868.27
2019-03-28T17:16:22.523Z,101863.81
2019-03-28T17:18:50.954Z,101871.74
2019-03-28T17:21:19.383Z,101871.45
2019-03-28T17:24:07.027Z,101872.76
2019-03-28T17:26:35.457Z,101879.98
2019-03-28T17:29:23.231Z,101876.31
2019-03-28T17:31:51.654Z,101878.62
2019-03-28T17:34:33.756Z,101875.97
2019-03-28T17:36:50.266Z,101881.98
2019-03-28T17:39:37.894Z,101879.52
2019-03-28T17:42:06.451Z,101877.41
2019-03-28T17:44:34.870Z,101875.03
2019-03-28T17:47:03.380Z,101878.27
2019-03-28T17:52:25.431Z,101881.50
2019-03-28T17:55:13.217Z,101888.22
2019-03-28T17:57:41.649Z,101887.19
2019-03-28T18:00:50.025Z,101883.43
2019-03-28T18:03:30.516Z,101884.40
2019-03-28T18:06:08.694Z,101879.61
2019-03-28T18:08:38.115Z,101882.12
2019-03-28T18:11:06.544Z,101882.61
2019-03-28T18:13:35.007Z,101882.66
2019-03-28T18:16:03.421Z,101884.47
2019-03-28T18:18:31.847Z,101888.59
2019-03-28T18:21:00.404Z,101885.00
2019-03-28T18:23:48.139Z,101884.90
2019-03-28T18:26:16.603Z,101893.72
2019-03-28T18:28:45.040Z,101897.07
2019-03-28T18:31:13.456Z,101897.28
2019-03-28T18:33:41.918Z,101903.19
2019-03-28T18:36:10.359Z,101904.04
2019-03-28T18:38:38.784Z,101913.13
2019-03-28T18:41:47.158Z,101918.81
2019-03-28T18:44:34.771Z,101920.62
2019-03-28T18:47:03.244Z,101917.25
2019-03-28T18:49:31.676Z,101915.96
2019-03-28T18:52:00.106Z,101916.08
2019-03-28T18:54:28.561Z,101923.12
2019-03-28T18:57:19.518Z,101918.35
2019-03-28T18:59:46.491Z,101919.33
2019-03-28T19:02:14.928Z,101921.55
2019-03-28T19:04:43.353Z,101927.81
2019-03-28T19:07:11.805Z,101926.94
2019-03-28T19:09:40.231Z,101927.86
2019-03-28T19:12:08.660Z,101926.11
2019-03-28T19:14:37.118Z,101934.97
2019-03-28T19:17:05.621Z,101937.20
2019-03-28T19:19:39.610Z,101929.20
2019-03-28T19:22:23.903Z,101926.55
2019-03-28T19:24:53.808Z,101935.02
2019-03-28T19:27:22.238Z,101929.23
2019-03-28T19:29:50.701Z,101931.00
2019-03-28T19:32:19.135Z,101928.34
2019-03-28T19:35:06.778Z,101930.15
2019-03-28T19:38:15.131Z,101930.13
2019-03-28T19:43:20.995Z,101923.44
2019-03-28T19:46:07.441Z,101919.92
2019-03-28T19:48:35.872Z,101922.19
2019-03-28T19:51:23.668Z,101924.39
2019-03-28T19:53:52.109Z,101923.51
2019-03-28T19:56:21.001Z,101920.84
2019-03-28T20:01:25.117Z,101918.11
2019-03-28T20:03:55.083Z,101915.03
2019-03-28T20:06:43.126Z,101918.60
2019-03-28T20:11:45.520Z,101919.92
2019-03-28T20:16:48.671Z,101913.76
2019-03-28T20:19:17.949Z,101909.31
2019-03-28T20:21:47.339Z,101912.01
2019-03-28T20:24:15.763Z,101907.07
2019-03-28T20:26:44.230Z,101909.67
2019-03-28T20:29:12.656Z,101910.52
2019-03-28T20:31:41.076Z,101911.33
2019-03-28T20:34:09.532Z,101904.20
2019-03-28T20:36:42.131Z,101911.99
2019-03-28T20:39:48.144Z,101914.75
2019-03-28T20:42:16.571Z,101910.36
2019-03-28T20:44:45.048Z,101908.19
2019-03-28T20:49:47.491Z,101909.59
2019-03-28T20:52:15.936Z,101910.55
2019-03-28T20:54:44.360Z,101906.59
2019-03-28T20:57:12.789Z,101909.22
2019-03-28T20:59:41.248Z,101913.19
2019-03-28T21:02:28.931Z,101916.78
2019-03-28T21:11:06.223Z,101916.38
2019-03-28T21:13:35.353Z,101909.26
2019-03-28T21:16:04.822Z,101914.17
2019-03-28T21:18:33.254Z,101921.25
2019-03-28T21:21:02.805Z,101921.30
2019-03-28T21:23:51.193Z,101913.34
2019-03-28T21:29:12.594Z,101906.28
2019-03-28T21:31:49.692Z,101909.39
2019-03-28T21:34:11.356Z,101911.16
2019-03-28T21:37:00.576Z,101903.60
2019-03-28T21:39:29.057Z,101903.61
2019-03-28T21:41:57.495Z,101902.27
2019-03-28T21:44:25.916Z,101898.77
2019-03-28T21:46:54.374Z,101895.22
2019-03-28T21:49:22.803Z,101899.17
2019-03-28T21:51:51.246Z,101897.85
2019-03-28T21:54:19.724Z,101892.09
2019-03-28T21:56:48.157Z,101897.42
2019-03-28T22:02:10.492Z,101890.79
2019-03-28T22:04:38.915Z,101897.44
2019-03-28T22:07:07.404Z,101890.77
2019-03-28T22:09:35.856Z,101889.90
2019-03-28T22:14:59.050Z,101892.09
2019-03-28T22:17:27.477Z,101888.09
2019-03-28T22:19:55.904Z,101885.00
2019-03-28T22:24:57.954Z,101887.66
2019-03-28T22:27:26.380Z,101888.95
2019-03-28T22:30:14.106Z,101888.95
2019-03-28T22:32:42.526Z,101885.86
2019-03-28T22:35:51.199Z,101887.59
2019-03-28T22:38:21.192Z,101880.08
2019-03-28T22:40:51.280Z,101881.84
2019-03-28T22:45:54.083Z,101879.60
2019-03-28T22:50:56.830Z,101878.67
2019-03-28T22:53:25.290Z,101880.05
2019-03-28T22:55:53.715Z,101880.92
2019-03-28T22:58:41.492Z,101891.09
2019-03-28T23:01:49.846Z,101888.84
2019-03-28T23:04:58.542Z,101889.28
2019-03-28T23:07:46.169Z,101881.77
2019-03-28T23:10:54.545Z,101885.78
2019-03-28T23:13:22.973Z,101885.34
2019-03-28T23:15:51.408Z,101889.72
2019-03-28T23:20:54.166Z,101892.38
2019-03-28T23:23:22.620Z,101886.63
2019-03-28T23:26:10.233Z,101887.07
2019-03-28T23:28:38.708Z,101891.94
2019-03-28T23:31:07.138Z,101892.42
2019-03-28T23:33:35.580Z,101887.11
2019-03-28T23:36:04.104Z,101894.59
2019-03-28T23:38:32.524Z,101884.91
2019-03-28T23:41:00.962Z,101888.45
2019-03-28T23:43:29.412Z,101882.70
2019-03-28T23:45:57.837Z,101882.25
2019-03-28T23:48:26.265Z,101887.55
2019-03-28T23:50:54.717Z,101883.58
2019-03-28T23:53:23.147Z,101892.42
2019-03-28T23:55:51.567Z,101895.08
2019-03-28T23:58:20.938Z,101888.88
